Time;durP1;ratioP1;P1;durP2;ratioP2;P2;SDS_P1;SDS_P2;PMS_P1;PMS_P2;Temp;Humidity;BMP_temperature;BMP_pressure;BME280_temperature;BME280_humidity;BME280_pressure;Samples;Min_cycle;Max_cycle;Signal;HPM_P1;HPM_P2
2022/11/16 00:02:11;;;;;;;26.55;9.82;;;7.60;99.90;;;;;;5006809;28;20034;-61
2022/11/16 00:04:40;;;;;;;24.98;9.10;;;7.50;99.90;;;;;;5014100;28;20072;-63
2022/11/16 00:07:07;;;;;;;29.85;9.90;;;7.50;99.90;;;;;;4995376;28;20054;-61
2022/11/16 00:09:36;;;;;;;21.92;9.85;;;7.50;99.90;;;;;;5016309;28;20053;-62
2022/11/16 00:12:06;;;;;;;25.58;8.82;;;7.50;99.90;;;;;;5007399;28;20478;-65
2022/11/16 00:14:34;;;;;;;;;;;7.50;99.90;;;;;;5016565;28;20046;-63
2022/11/16 00:17:03;;;;;;;23.30;8.07;;;7.50;99.90;;;;;;5007267;28;19922;-66
2022/11/16 00:19:30;;;;;;;19.92;8.48;;;7.40;99.90;;;;;;5016994;28;20048;-66
2022/11/16 00:21:58;;;;;;;25.70;7.93;;;7.40;99.90;;;;;;5007034;28;20046;-62
2022/11/16 00:24:26;;;;;;;24.65;7.70;;;7.30;99.90;;;;;;5010538;28;20046;-69
2022/11/16 00:26:55;;;;;;;14.98;7.57;;;7.30;99.90;;;;;;5011258;28;20053;-63
2022/11/16 00:29:24;;;;;;;19.17;8.23;;;7.30;99.90;;;;;;5011689;28;20037;-79
2022/11/16 00:31:52;;;;;;;17.83;7.03;;;7.30;99.90;;;;;;5009657;28;20042;-76
2022/11/16 00:34:22;;;;;;;20.27;7.78;;;7.40;99.90;;;;;;5013603;28;20401;-69
2022/11/16 00:36:50;;;;;;;21.33;7.47;;;7.40;99.90;;;;;;5023407;28;20049;-77
2022/11/16 00:39:18;;;;;;;24.20;9.68;;;7.40;99.90;;;;;;5015932;28;20294;-81
2022/11/16 00:41:47;;;;;;;22.13;7.28;;;7.40;99.90;;;;;;5024256;28;20057;-63
2022/11/16 00:44:15;;;;;;;20.45;7.80;;;7.40;99.90;;;;;;5020024;28;20433;-63
2022/11/16 00:46:43;;;;;;;18.87;7.60;;;7.40;99.90;;;;;;4979407;28;1316101;-62
2022/11/16 00:49:13;;;;;;;18.58;8.38;;;7.50;99.90;;;;;;5014066;28;20516;-63
2022/11/16 00:51:41;;;;;;;19.25;9.63;;;7.50;99.90;;;;;;5023321;28;20049;-62
2022/11/16 00:54:09;;;;;;;20.23;8.50;;;7.60;99.90;;;;;;5022910;28;20045;-64
2022/11/16 00:56:39;;;;;;;24.63;8.30;;;7.60;99.90;;;;;;5012985;28;20042;-62
2022/11/16 00:59:07;;;;;;;24.52;8.90;;;7.60;99.90;;;;;;5014475;28;20050;-62
2022/11/16 01:01:34;;;;;;;24.63;9.20;;;7.60;99.90;;;;;;5010035;28;20046;-63
2022/11/16 01:04:02;;;;;;;22.65;9.68;;;7.70;99.90;;;;;;5015632;28;20771;-65
2022/11/16 01:06:30;;;;;;;23.17;9.20;;;7.70;99.90;;;;;;5024641;28;20072;-79
2022/11/16 01:09:00;;;;;;;23.17;8.65;;;7.80;99.90;;;;;;5013202;28;20521;-74
2022/11/16 01:14:14;;;;;;;19.08;8.30;;;7.70;99.90;;;;;;5007466;28;20511;-63
2022/11/16 01:16:43;;;;;;;23.75;9.07;;;7.80;99.90;;;;;;5014626;28;20489;-66
2022/11/16 01:19:10;;;;;;;17.88;8.30;;;7.70;99.90;;;;;;5021587;28;20218;-64
2022/11/16 01:21:38;;;;;;;20.90;9.05;;;7.70;99.90;;;;;;5008355;28;20050;-65
2022/11/16 01:24:06;;;;;;;22.00;8.63;;;7.70;99.90;;;;;;5013493;28;20038;-63
2022/11/16 01:26:34;;;;;;;16.92;8.40;;;;;;;;;;5019838;28;20046;-62
2022/11/16 01:29:01;;;;;;;21.70;9.95;;;7.70;99.90;;;;;;5014885;28;20052;-64
2022/11/16 01:31:33;;;;;;;17.65;8.60;;;7.70;99.90;;;;;;5015662;28;20496;-62
2022/11/16 01:34:02;;;;;;;23.85;8.23;;;7.70;99.90;;;;;;5020912;28;20048;-63
2022/11/16 01:36:30;;;;;;;15.40;7.93;;;7.60;99.90;;;;;;5023055;28;20061;-63
2022/11/16 01:39:00;;;;;;;14.43;7.82;;;7.60;99.90;;;;;;5013508;28;20037;-62
2022/11/16 01:41:32;;;;;;;16.33;7.63;;;7.60;99.90;;;;;;5010128;28;20046;-62
2022/11/16 01:44:25;;;;;;;14.80;7.05;;;7.60;99.90;;;;;;5009637;28;20044;-63
2022/11/16 01:46:58;;;;;;;14.13;7.18;;;7.50;99.90;;;;;;5009511;28;20053;-63
2022/11/16 01:49:31;;;;;;;19.17;7.07;;;7.50;99.90;;;;;;5011677;28;20045;-62
2022/11/16 01:52:05;;;;;;;14.50;7.32;;;7.50;99.90;;;;;;5014004;28;20046;-61
2022/11/16 01:54:38;;;;;;;14.07;7.10;;;7.50;99.90;;;;;;5007790;28;20429;-73
2022/11/16 01:57:10;;;;;;;14.27;7.15;;;7.50;99.90;;;;;;5021708;28;20048;-66
2022/11/16 01:59:44;;;;;;;13.70;6.45;;;7.50;99.90;;;;;;5020357;28;20037;-81
2022/11/16 02:02:16;;;;;;;12.32;6.43;;;7.50;99.90;;;;;;5008795;28;20544;-60
2022/11/16 02:04:46;;;;;;;12.10;6.93;;;7.50;99.90;;;;;;5013103;28;20057;-62
2022/11/16 02:09:52;;;;;;;12.60;6.10;;;7.50;99.90;;;;;;5017997;28;20041;-67
2022/11/16 02:10:49;;;;;;;11.60;7.38;;;7.50;99.90;;;;;;5012246;28;20097;-61
2022/11/16 02:13:57;;;;;;;12.38;7.22;;;7.50;99.90;;;;;;5008839;28;20050;-61
2022/11/16 02:16:40;;;;;;;9.63;6.15;;;7.50;99.90;;;;;;5004373;28;20540;-62
2022/11/16 02:19:22;;;;;;;15.57;6.40;;;7.50;99.90;;;;;;5023480;28;20064;-62
2022/11/16 02:22:12;;;;;;;14.65;6.90;;;7.50;99.90;;;;;;5008605;28;20061;-61
2022/11/16 02:24:58;;;;;;;10.85;6.45;;;7.50;99.90;;;;;;5016398;28;20474;-62
2022/11/16 02:27:48;;;;;;;9.93;5.65;;;7.50;99.90;;;;;;5010328;28;20045;-61
2022/11/16 02:30:17;;;;;;;9.23;5.55;;;7.50;99.90;;;;;;5022636;28;20045;-67
2022/11/16 02:32:52;;;;;;;10.55;5.72;;;7.50;99.90;;;;;;5018586;28;20042;-64
2022/11/16 02:35:29;;;;;;;10.82;5.97;;;7.50;99.90;;;;;;5025960;28;20064;-84
2022/11/16 02:38:09;;;;;;;11.55;5.25;;;7.50;99.90;;;;;;5014945;28;20132;-78
2022/11/16 02:40:41;;;;;;;10.90;5.80;;;7.50;99.90;;;;;;5019521;28;20065;-82
2022/11/16 02:43:15;;;;;;;9.55;5.90;;;7.50;99.90;;;;;;5001078;28;20050;-79
2022/11/16 02:45:48;;;;;;;8.20;5.35;;;7.50;99.90;;;;;;5022464;28;20041;-71
2022/11/16 02:48:24;;;;;;;9.38;5.00;;;7.40;99.90;;;;;;5031620;28;20057;-87
2022/11/16 02:50:52;;;;;;;9.98;4.97;;;7.40;99.90;;;;;;4997363;28;20524;-89
2022/11/16 02:53:22;;;;;;;12.38;4.82;;;7.40;99.90;;;;;;5020139;28;20409;-87
2022/11/16 02:55:50;;;;;;;10.30;5.32;;;7.40;99.90;;;;;;5020192;28;20548;-73
2022/11/16 02:58:24;;;;;;;14.35;5.05;;;7.30;99.90;;;;;;5012004;28;20046;-89
2022/11/16 03:00:58;;;;;;;13.70;5.28;;;7.30;99.90;;;;;;5023975;28;20502;-74
2022/11/16 03:03:45;;;;;;;8.18;5.30;;;7.20;99.90;;;;;;5025308;28;20414;-89
2022/11/16 03:06:25;;;;;;;8.55;4.63;;;7.20;99.90;;;;;;5027973;28;20037;-75
2022/11/16 03:09:05;;;;;;;9.63;4.78;;;7.10;99.90;;;;;;5019729;28;20057;-86
2022/11/16 03:14:48;;;;;;;12.95;6.13;;;7.00;99.90;;;;;;5020746;28;20064;-77
2022/11/16 03:17:41;;;;;;;8.60;5.28;;;7.10;99.90;;;;;;5018849;28;20508;-89
2022/11/16 03:20:15;;;;;;;13.57;6.15;;;7.10;99.90;;;;;;5008259;28;20061;-75
2022/11/16 03:22:46;;;;;;;11.90;5.63;;;7.10;99.90;;;;;;5015119;28;20052;-89
2022/11/16 03:25:18;;;;;;;12.38;5.68;;;7.10;99.90;;;;;;5016089;28;20393;-89
2022/11/16 03:27:58;;;;;;;15.77;5.07;;;7.10;99.90;;;;;;5015249;28;20040;-88
2022/11/16 03:30:30;;;;;;;13.02;4.57;;;7.10;99.90;;;;;;5027428;28;20041;-91
2022/11/16 03:33:05;;;;;;;9.68;4.28;;;7.10;99.90;;;;;;5012317;28;20096;-73
2022/11/16 03:35:51;;;;;;;7.13;3.65;;;7.10;99.90;;;;;;5026080;28;20052;-90
2022/11/16 03:38:21;;;;;;;9.85;3.92;;;7.10;99.90;;;;;;5018402;28;20049;-80
2022/11/16 03:40:49;;;;;;;;;;;7.00;99.90;;;;;;5020064;28;20049;-79
2022/11/16 03:43:19;;;;;;;5.20;2.60;;;7.40;99.90;;;;;;5012506;28;19925;-61
2022/11/16 03:45:48;;;;;;;5.70;2.85;;;7.00;99.90;;;;;;5016740;28;20375;-66
2022/11/16 03:48:16;;;;;;;3.72;2.80;;;6.90;99.90;;;;;;5017639;28;20052;-65
2022/11/16 03:50:44;;;;;;;7.78;2.80;;;6.90;99.90;;;;;;5031819;28;20049;-60
2022/11/16 03:53:13;;;;;;;5.03;2.88;;;6.90;99.90;;;;;;5030677;28;20057;-63
2022/11/16 03:55:40;;;;;;;8.05;2.70;;;6.90;99.90;;;;;;5029684;28;20065;-61
2022/11/16 03:58:17;;;;;;;8.15;2.40;;;6.90;99.90;;;;;;5024680;28;20042;-61
2022/11/16 04:00:45;;;;;;;3.05;2.30;;;6.90;99.90;;;;;;5010869;28;20034;-61
2022/11/16 04:03:13;;;;;;;7.85;2.53;;;6.90;99.90;;;;;;5010801;28;20052;-62
2022/11/16 04:25:33;;;;;;;5.05;1.73;;;6.50;99.90;;;;;;5015787;28;20042;-69
2022/11/16 04:28:17;;;;;;;4.55;1.75;;;6.60;99.90;;;;;;5010353;28;20054;-71
2022/11/16 04:39:38;;;;;;;4.00;1.50;;;6.50;99.90;;;;;;5026937;28;20052;-91
2022/11/16 04:42:16;;;;;;;4.72;1.70;;;6.50;99.90;;;;;;5010635;28;20050;-61
2022/11/16 04:47:38;;;;;;;7.20;1.40;;;6.60;99.90;;;;;;5030051;28;20076;-62
2022/11/16 04:50:06;;;;;;;8.45;1.63;;;6.50;99.90;;;;;;5013603;28;20053;-62
2022/11/16 04:52:34;;;;;;;8.82;1.90;;;8.60;99.90;;;;;;5013640;28;20041;-67
2022/11/16 04:55:03;;;;;;;7.07;1.90;;;6.50;99.90;;;;;;5029207;28;20037;-62
2022/11/16 04:57:31;;;;;;;3.58;1.45;;;6.60;99.90;;;;;;5030110;28;20049;-66
2022/11/16 04:59:59;;;;;;;5.20;1.67;;;6.60;99.90;;;;;;5031050;28;20072;-74
2022/11/16 05:02:27;;;;;;;10.90;2.30;;;6.60;99.90;;;;;;5026878;28;20061;-66
2022/11/16 05:04:57;;;;;;;;;;;6.60;99.90;;;;;;5029274;28;20060;-70
2022/11/16 05:07:26;;;;;;;13.55;2.60;;;6.60;99.90;;;;;;5017860;28;19928;-81
2022/11/16 05:10:05;;;;;;;11.02;1.83;;;6.60;99.90;;;;;;5010382;28;20072;-69
2022/11/16 05:12:34;;;;;;;4.93;1.80;;;6.50;99.90;;;;;;5030444;28;20053;-75
2022/11/16 05:15:05;;;;;;;7.18;2.70;;;6.50;99.90;;;;;;5022224;28;20041;-80
2022/11/16 05:17:34;;;;;;;4.63;1.88;;;6.40;99.90;;;;;;5033858;28;20112;-71
2022/11/16 05:22:56;;;;;;;7.40;2.15;;;6.20;99.90;;;;;;5034533;28;20052;-65
2022/11/16 05:25:29;;;;;;;8.43;2.30;;;6.10;99.90;;;;;;5032408;28;20362;-61
2022/11/16 05:28:05;;;;;;;6.97;1.92;;;6.10;99.90;;;;;;5015976;28;20513;-64
2022/11/16 05:30:36;;;;;;;3.00;1.23;;;6.00;99.90;;;;;;5014460;28;20053;-62
2022/11/16 05:33:04;;;;;;;6.30;1.40;;;6.00;99.90;;;;;;5013783;28;20049;-78
2022/11/16 05:35:36;;;;;;;8.57;2.20;;;5.90;99.90;;;;;;5025831;28;20068;-85
2022/11/16 05:38:04;;;;;;;6.05;1.25;;;5.90;99.90;;;;;;5033204;28;20511;-88
2022/11/16 05:40:35;;;;;;;6.82;1.88;;;5.80;99.90;;;;;;5033165;28;20056;-88
2022/11/16 05:43:03;;;;;;;6.30;1.85;;;5.80;99.90;;;;;;5034369;28;20049;-91
2022/11/16 05:45:36;;;;;;;6.72;1.50;;;5.80;99.90;;;;;;5004013;28;20409;-91
2022/11/16 05:48:05;;;;;;;5.40;1.70;;;5.80;99.90;;;;;;5015016;28;20049;-72
2022/11/16 05:50:32;;;;;;;3.53;1.45;;;5.70;99.90;;;;;;5030811;28;20046;-62
2022/11/16 05:53:12;;;;;;;11.90;1.75;;;5.70;99.90;;;;;;5028779;28;20417;-89
2022/11/16 05:55:40;;;;;;;5.40;1.48;;;5.60;99.90;;;;;;5029631;28;20041;-76
2022/11/16 05:58:08;;;;;;;4.90;1.70;;;5.60;99.90;;;;;;5029276;28;20057;-85
2022/11/16 06:00:37;;;;;;;8.48;1.48;;;5.60;99.90;;;;;;5013342;28;20413;-79
2022/11/16 06:03:06;;;;;;;3.63;1.30;;;5.60;99.90;;;;;;5020815;28;20542;-89
2022/11/16 06:05:35;;;;;;;6.93;1.23;;;5.60;99.90;;;;;;5009767;28;20493;-86
2022/11/16 06:08:09;;;;;;;5.68;1.75;;;5.50;99.90;;;;;;5026263;28;20067;-84
2022/11/16 06:10:36;;;;;;;3.85;1.65;;;5.50;99.90;;;;;;5023526;28;20049;-87
2022/11/16 06:13:05;;;;;;;8.23;1.83;;;5.50;99.90;;;;;;5012450;28;20056;-61
2022/11/16 06:15:37;;;;;;;6.53;1.23;;;5.50;99.90;;;;;;5024921;28;20057;-63
2022/11/16 06:18:07;;;;;;;3.95;1.70;;;5.40;99.90;;;;;;5022030;28;20046;-65
2022/11/16 06:20:37;;;;;;;6.45;1.25;;;5.50;99.90;;;;;;5012952;28;20042;-61
2022/11/16 06:23:06;;;;;;;7.38;1.42;;;5.40;99.90;;;;;;5003386;28;20045;-61
2022/11/16 06:25:40;;;;;;;4.57;1.30;;;5.50;99.90;;;;;;5010554;28;20501;-62
2022/11/16 06:28:09;;;;;;;5.47;1.35;;;5.50;99.90;;;;;;5013890;28;20038;-66
2022/11/16 06:30:39;;;;;;;8.73;1.65;;;5.40;99.90;;;;;;5014884;28;20409;-62
2022/11/16 06:33:08;;;;;;;9.82;2.03;;;5.40;99.90;;;;;;5022270;28;20389;-62
2022/11/16 06:35:37;;;;;;;9.35;1.80;;;5.50;99.90;;;;;;5010351;28;20042;-62
2022/11/16 06:38:05;;;;;;;7.30;1.48;;;5.50;99.90;;;;;;5019944;28;20204;-62
2022/11/16 06:40:33;;;;;;;10.40;2.03;;;5.50;99.90;;;;;;5022574;28;20049;-62
2022/11/16 06:43:03;;;;;;;8.27;1.65;;;5.50;99.90;;;;;;5027691;28;20057;-63
2022/11/16 06:45:31;;;;;;;5.07;1.50;;;5.50;99.90;;;;;;5027387;28;20402;-63
2022/11/16 06:48:00;;;;;;;10.43;2.80;;;5.50;99.90;;;;;;5012574;28;20054;-69
2022/11/16 06:50:28;;;;;;;9.23;2.75;;;5.50;99.90;;;;;;5014066;28;20041;-62
2022/11/16 06:52:59;;;;;;;11.10;2.90;;;5.50;99.90;;;;;;5022908;28;20045;-62
2022/11/16 06:55:28;;;;;;;7.25;2.17;;;5.50;99.90;;;;;;5016461;28;20056;-62
2022/11/16 06:57:56;;;;;;;17.90;2.67;;;5.60;99.90;;;;;;4980203;28;20508;-62
2022/11/16 07:00:24;;;;;;;6.20;1.95;;;5.50;99.90;;;;;;5013042;28;20042;-62
2022/11/16 07:02:53;;;;;;;10.68;2.00;;;5.50;99.90;;;;;;5009836;28;20265;-64
2022/11/16 07:05:22;;;;;;;;;;;5.50;99.90;;;;;;5008044;28;20050;-62
2022/11/16 07:07:53;;;;;;;6.60;1.98;;;5.50;99.90;;;;;;5021759;28;19921;-62
2022/11/16 07:10:22;;;;;;;7.57;2.40;;;5.40;99.90;;;;;;5017371;28;20041;-62
2022/11/16 07:12:49;;;;;;;11.38;2.70;;;5.40;99.90;;;;;;5016056;28;20060;-62
2022/11/16 07:15:19;;;;;;;4.60;2.67;;;5.40;99.90;;;;;;5015981;28;20480;-69
2022/11/16 07:17:48;;;;;;;10.15;3.38;;;5.50;99.90;;;;;;5013551;28;20037;-80
2022/11/16 07:20:15;;;;;;;11.27;4.10;;;5.50;99.90;;;;;;5011925;28;20050;-79
2022/11/16 07:22:44;;;;;;;14.27;3.80;;;5.60;99.90;;;;;;5022547;28;20041;-84
2022/11/16 07:25:14;;;;;;;10.68;2.80;;;5.60;99.90;;;;;;5009273;28;20057;-62
2022/11/16 07:27:42;;;;;;;10.52;3.50;;;5.60;99.90;;;;;;5005973;28;20057;-80
2022/11/16 07:30:11;;;;;;;12.45;3.20;;;5.60;99.90;;;;;;5002899;28;20403;-63
2022/11/16 07:32:45;;;;;;;12.82;4.45;;;5.70;99.90;;;;;;5013113;28;20056;-69
2022/11/16 07:35:20;;;;;;;11.82;3.85;;;5.70;99.90;;;;;;5018672;28;20045;-62
2022/11/16 07:37:48;;;;;;;10.45;3.58;;;5.60;99.90;;;;;;5020268;28;20052;-62
2022/11/16 07:40:15;;;;;;;10.15;3.60;;;5.60;99.90;;;;;;5021159;28;20054;-62
2022/11/16 07:42:45;;;;;;;10.35;3.80;;;5.60;99.90;;;;;;5012184;28;20056;-65
2022/11/16 07:45:24;;;;;;;9.60;3.43;;;5.60;99.90;;;;;;5022927;28;20048;-67
2022/11/16 07:47:57;;;;;;;8.20;3.28;;;5.50;99.90;;;;;;5021245;28;20054;-63
2022/11/16 07:50:43;;;;;;;11.02;3.35;;;5.50;99.90;;;;;;5005943;28;20053;-63
2022/11/16 07:53:16;;;;;;;11.40;3.80;;;;;;;;;;5010809;28;20046;-62
2022/11/16 07:55:50;;;;;;;5.97;3.38;;;5.60;99.90;;;;;;5006837;28;20049;-71
2022/11/16 07:58:18;;;;;;;11.15;3.78;;;5.60;99.90;;;;;;5018931;28;20041;-62
2022/11/16 08:00:46;;;;;;;11.68;4.68;;;5.60;99.90;;;;;;5014930;28;20484;-62
2022/11/16 08:03:18;;;;;;;16.98;4.97;;;5.70;99.90;;;;;;5008823;28;20596;-70
2022/11/16 08:06:01;;;;;;;15.18;4.85;;;5.80;99.90;;;;;;5002483;28;20038;-68
2022/11/16 08:08:31;;;;;;;18.77;4.93;;;5.80;99.90;;;;;;5015460;28;20037;-84
2022/11/16 08:11:00;;;;;;;13.02;4.97;;;5.90;99.90;;;;;;5010506;28;20042;-65
2022/11/16 08:13:30;;;;;;;14.88;5.72;;;6.00;99.90;;;;;;5014709;28;20050;-72
2022/11/16 08:16:00;;;;;;;21.73;4.70;;;6.00;99.90;;;;;;5006516;28;20046;-69
2022/11/16 08:18:29;;;;;;;16.17;5.25;;;4.90;99.90;;;;;;5008522;28;20049;-78
2022/11/16 08:21:00;;;;;;;15.82;6.10;;;6.10;99.90;;;;;;5005842;28;20065;-84
2022/11/16 08:23:29;;;;;;;14.02;6.07;;;6.10;99.90;;;;;;5009453;28;20045;-64
2022/11/16 08:26:06;;;;;;;14.77;5.55;;;6.20;99.90;;;;;;5010953;28;20049;-92
2022/11/16 08:28:35;;;;;;;23.40;7.32;;;6.20;99.90;;;;;;5015394;28;20445;-74
2022/11/16 08:31:19;;;;;;;19.60;7.65;;;6.20;99.90;;;;;;4999040;28;20041;-89
2022/11/16 08:33:51;;;;;;;16.42;6.03;;;6.30;99.90;;;;;;5015654;28;20046;-88
2022/11/16 08:36:20;;;;;;;10.38;4.97;;;6.30;99.90;;;;;;5016653;28;20046;-70
2022/11/16 08:38:50;;;;;;;12.55;5.05;;;6.30;99.90;;;;;;5026755;28;20041;-77
2022/11/16 08:41:20;;;;;;;11.43;4.68;;;6.30;99.90;;;;;;5027069;28;20038;-75
2022/11/16 08:43:49;;;;;;;13.40;4.40;;;6.30;99.90;;;;;;5011455;28;20485;-67
2022/11/16 08:46:19;;;;;;;;;;;6.30;99.90;;;;;;4993106;28;20068;-61
2022/11/16 08:48:56;;;;;;;11.70;4.38;;;6.30;99.90;;;;;;5019769;28;19940;-60
2022/11/16 08:51:25;;;;;;;14.63;4.70;;;6.30;99.90;;;;;;5012092;28;20478;-60
2022/11/16 08:54:02;;;;;;;12.45;4.10;;;6.30;99.90;;;;;;5015421;28;20041;-63
2022/11/16 08:56:31;;;;;;;11.60;4.57;;;6.20;99.90;;;;;;5030801;28;20049;-60
2022/11/16 08:58:59;;;;;;;13.90;4.20;;;6.20;99.90;;;;;;5024152;28;20053;-63
2022/11/16 09:01:29;;;;;;;12.23;4.18;;;6.20;99.90;;;;;;5012564;28;20042;-67
2022/11/16 09:03:58;;;;;;;9.00;4.68;;;6.30;99.90;;;;;;5017382;28;20052;-60
2022/11/16 09:06:26;;;;;;;12.20;4.68;;;6.30;99.90;;;;;;5019685;28;20568;-66
2022/11/16 09:08:55;;;;;;;20.20;5.03;;;6.30;99.90;;;;;;5020059;28;20057;-73
2022/11/16 09:11:24;;;;;;;11.52;4.70;;;6.30;99.90;;;;;;5027645;28;20045;-61
2022/11/16 09:13:53;;;;;;;17.30;4.95;;;6.40;99.90;;;;;;5026978;28;20050;-82
2022/11/16 09:16:26;;;;;;;14.40;4.90;;;;;;;;;;5015148;28;20485;-64
2022/11/16 09:18:54;;;;;;;17.98;5.97;;;6.50;99.90;;;;;;5023639;28;20512;-63
2022/11/16 09:21:27;;;;;;;20.05;5.20;;;6.50;99.90;;;;;;5010416;28;20042;-60
2022/11/16 09:23:56;;;;;;;21.27;5.65;;;6.50;99.90;;;;;;5027209;28;20481;-60
2022/11/16 09:26:25;;;;;;;15.38;6.72;;;6.50;99.90;;;;;;5031232;28;20042;-60
2022/11/16 09:28:58;;;;;;;14.93;6.43;;;6.50;99.90;;;;;;5030694;28;20052;-62
2022/11/16 09:31:28;;;;;;;16.60;5.93;;;6.50;99.90;;;;;;5025691;28;20405;-61
2022/11/16 09:33:57;;;;;;;11.82;5.13;;;6.50;99.90;;;;;;5021363;28;20050;-59
2022/11/16 09:36:26;;;;;;;15.57;5.95;;;6.50;99.90;;;;;;5021830;28;20052;-62
2022/11/16 09:38:55;;;;;;;20.70;7.18;;;6.50;99.90;;;;;;5024249;28;20042;-63
2022/11/16 09:42:28;;;;;;;16.52;5.22;;;6.50;99.90;;;;;;5031263;28;20048;-63
2022/11/16 09:45:35;;;;;;;11.70;5.13;;;6.50;99.90;;;;;;4992166;28;20060;-63
2022/11/16 09:48:05;;;;;;;23.60;5.40;;;6.50;99.90;;;;;;5006778;28;20157;-67
2022/11/16 09:50:45;;;;;;;12.38;4.70;;;6.50;99.90;;;;;;5010085;28;20046;-70
2022/11/16 09:53:25;;;;;;;17.67;5.30;;;6.60;99.90;;;;;;5020532;28;20057;-69
2022/11/16 09:56:04;;;;;;;14.18;6.35;;;6.70;99.90;;;;;;5029702;28;20046;-61
2022/11/16 09:59:06;;;;;;;20.38;6.03;;;6.90;99.90;;;;;;5022486;28;20041;-67
2022/11/16 10:01:47;;;;;;;19.65;6.25;;;7.10;99.90;;;;;;5010986;28;20057;-68
2022/11/16 10:04:26;;;;;;;14.88;4.90;;;7.20;99.90;;;;;;5026375;28;20053;-63
2022/11/16 10:07:04;;;;;;;17.13;4.18;;;7.30;99.90;;;;;;5015262;28;20041;-87
2022/11/16 10:09:33;;;;;;;14.50;4.53;;;7.60;99.90;;;;;;5022546;28;20426;-72
2022/11/16 10:12:33;;;;;;;10.27;3.70;;;7.60;99.90;;;;;;5010381;28;20482;-80
2022/11/16 10:15:24;;;;;;;;;;;7.70;99.90;;;;;;5002722;28;20060;-76
2022/11/16 10:18:01;;;;;;;11.30;4.25;;;8.00;99.90;;;;;;5014198;28;19935;-77
2022/11/16 10:21:02;;;;;;;9.38;3.50;;;8.10;99.90;;;;;;5028328;28;20049;-71
2022/11/16 10:23:43;;;;;;;9.27;3.67;;;8.20;99.90;;;;;;5027261;28;20045;-79
2022/11/16 10:26:24;;;;;;;5.53;3.03;;;8.20;99.90;;;;;;5018275;28;20075;-77
2022/11/16 10:29:16;;;;;;;8.88;2.95;;;8.30;99.90;;;;;;5024187;28;20053;-72
2022/11/16 10:32:02;;;;;;;9.45;2.67;;;8.40;99.90;;;;;;5027543;28;20041;-67
2022/11/16 10:34:51;;;;;;;7.82;2.60;;;8.40;99.90;;;;;;5009087;28;20065;-61
2022/11/16 10:37:21;;;;;;;4.10;2.10;;;8.40;99.90;;;;;;5010433;28;20061;-67
2022/11/16 10:39:52;;;;;;;8.93;2.30;;;8.30;99.90;;;;;;5026933;28;20540;-69
2022/11/16 10:42:39;;;;;;;7.25;2.40;;;8.30;99.90;;;;;;5012832;28;20046;-62
2022/11/16 10:45:20;;;;;;;8.15;2.70;;;8.30;99.90;;;;;;5024044;28;20492;-68
2022/11/16 10:47:55;;;;;;;10.75;2.65;;;8.20;99.90;;;;;;5014937;28;20045;-72
2022/11/16 10:50:53;;;;;;;8.18;2.72;;;8.20;99.90;;;;;;5019103;28;20050;-77
2022/11/16 10:53:46;;;;;;;6.32;2.65;;;8.20;99.90;;;;;;5019999;28;20485;-79
2022/11/16 10:56:23;;;;;;;7.55;3.15;;;8.20;99.90;;;;;;5012710;28;20045;-83
2022/11/16 10:58:54;;;;;;;9.25;2.10;;;8.20;99.90;;;;;;5029055;28;20061;-83
2022/11/16 11:01:53;;;;;;;8.13;2.70;;;8.20;99.90;;;;;;5015230;28;20041;-64
2022/11/16 11:04:25;;;;;;;6.80;2.67;;;8.20;99.90;;;;;;5023865;28;20056;-62
2022/11/16 11:06:57;;;;;;;8.95;2.50;;;8.30;99.90;;;;;;5024064;28;20386;-78
2022/11/16 11:09:32;;;;;;;9.13;3.40;;;8.30;99.90;;;;;;5027088;28;20049;-78
2022/11/16 11:15:10;;;;;;;10.77;3.53;;;8.40;99.90;;;;;;5007070;28;20069;-60
2022/11/16 11:17:42;;;;;;;11.43;3.67;;;8.40;99.90;;;;;;5009880;28;20053;-63
2022/11/16 11:20:13;;;;;;;5.13;2.50;;;8.50;99.90;;;;;;5020060;28;20512;-61
2022/11/16 11:22:47;;;;;;;12.40;3.45;;;8.50;99.90;;;;;;5016807;28;20041;-60
2022/11/16 11:25:32;;;;;;;5.53;2.90;;;8.50;99.90;;;;;;5017224;28;20482;-60
2022/11/16 11:28:19;;;;;;;6.40;3.15;;;8.60;99.90;;;;;;5022955;28;20048;-61
2022/11/16 11:31:04;;;;;;;9.25;3.42;;;8.60;99.90;;;;;;5025503;28;20049;-61
2022/11/16 11:33:33;;;;;;;5.70;2.58;;;7.90;99.90;;;;;;5028570;28;20049;-61
2022/11/16 11:36:04;;;;;;;5.93;2.67;;;8.70;99.90;;;;;;5021291;28;20065;-61
2022/11/16 11:38:32;;;;;;;;;;;8.80;99.90;;;;;;5017063;28;20403;-61
2022/11/16 11:41:03;;;;;;;5.20;2.28;;;8.80;99.90;;;;;;5008549;28;19929;-61
2022/11/16 11:43:32;;;;;;;5.45;2.50;;;8.80;99.90;;;;;;5020741;28;20046;-61
2022/11/16 11:46:19;;;;;;;5.80;2.42;;;8.70;99.90;;;;;;5019489;28;20049;-61
2022/11/16 11:49:05;;;;;;;4.30;2.17;;;8.70;99.90;;;;;;5025826;28;20057;-60
2022/11/16 11:51:35;;;;;;;5.95;1.90;;;8.70;99.90;;;;;;5019857;28;20482;-60
2022/11/16 11:54:05;;;;;;;4.00;2.17;;;8.70;99.90;;;;;;5019869;28;20046;-60
2022/11/16 11:56:33;;;;;;;8.63;2.03;;;8.60;99.90;;;;;;5017934;28;20042;-60
2022/11/16 11:59:03;;;;;;;4.10;1.80;;;8.60;99.90;;;;;;5018550;28;20052;-60
2022/11/16 12:01:34;;;;;;;;;;;8.60;99.90;;;;;;5021442;28;20057;-61
2022/11/16 12:04:35;;;;;;;2.88;1.83;;;8.60;99.90;;;;;;5022318;28;19924;-61
2022/11/16 12:07:28;;;;;;;6.97;1.85;;;8.60;99.90;;;;;;5005919;28;20486;-61
2022/11/16 12:09:59;;;;;;;4.57;2.50;;;8.60;99.90;;;;;;5005216;28;20052;-61
2022/11/16 12:12:45;;;;;;;6.50;2.42;;;8.60;99.90;;;;;;5008099;28;20064;-61
2022/11/16 12:15:35;;;;;;;5.00;2.13;;;8.60;99.90;;;;;;5024731;28;20405;-61
2022/11/16 12:18:17;;;;;;;5.88;2.22;;;8.70;99.90;;;;;;5017242;28;20478;-61
2022/11/16 12:21:14;;;;;;;4.07;1.80;;;8.70;99.90;;;;;;5023713;28;20045;-62
2022/11/16 12:23:56;;;;;;;5.57;2.17;;;8.70;99.90;;;;;;5024109;28;20401;-61
2022/11/16 12:26:55;;;;;;;6.07;2.63;;;8.70;99.90;;;;;;5010148;28;20050;-61
2022/11/16 12:29:27;;;;;;;6.90;2.03;;;8.70;99.90;;;;;;5017194;28;20046;-68
2022/11/16 12:32:09;;;;;;;4.03;1.85;;;8.70;99.90;;;;;;5003270;28;20046;-76
2022/11/16 12:35:02;;;;;;;3.85;1.80;;;8.70;99.90;;;;;;5005334;28;20050;-66
2022/11/16 12:38:14;;;;;;;2.13;1.52;;;8.70;99.90;;;;;;5006929;28;20717;-73
2022/11/16 12:40:57;;;;;;;4.63;1.63;;;8.70;99.90;;;;;;5022209;28;20251;-71
2022/11/16 12:43:52;;;;;;;13.48;1.90;;;8.70;99.90;;;;;;5017341;28;20052;-75
2022/11/16 12:46:33;;;;;;;5.20;1.33;;;8.70;99.90;;;;;;5023237;28;20453;-62
2022/11/16 12:49:01;;;;;;;13.68;1.90;;;8.70;99.90;;;;;;5024448;28;20056;-66
2022/11/16 12:51:56;;;;;;;3.72;1.70;;;8.70;99.90;;;;;;5013124;28;20050;-70
2022/11/16 12:54:41;;;;;;;3.60;1.60;;;8.70;99.90;;;;;;5023525;28;20504;-67
2022/11/16 12:57:44;;;;;;;3.13;1.63;;;8.70;99.90;;;;;;5024497;28;20489;-68
2022/11/16 13:00:15;;;;;;;3.08;1.25;;;8.70;99.90;;;;;;5022388;28;20053;-65
2022/11/16 13:03:09;;;;;;;4.97;1.67;;;8.70;99.90;;;;;;5023181;28;20060;-62
2022/11/16 13:05:45;;;;;;;4.10;1.50;;;8.70;99.90;;;;;;5003936;28;20494;-64
2022/11/16 13:08:34;;;;;;;2.88;1.30;;;8.80;99.90;;;;;;5015138;28;20202;-74
2022/11/16 13:11:17;;;;;;;2.58;1.60;;;8.80;99.90;;;;;;5024435;28;20069;-66
2022/11/16 13:13:46;;;;;;;3.95;1.50;;;8.80;99.90;;;;;;5023013;28;20053;-78
2022/11/16 13:16:23;;;;;;;6.75;1.52;;;8.90;99.90;;;;;;5004762;28;20046;-85
2022/11/16 13:18:52;;;;;;;6.57;1.10;;;8.90;99.90;;;;;;5017114;28;20508;-80
2022/11/16 13:21:27;;;;;;;4.47;1.45;;;8.90;99.90;;;;;;5016434;28;20646;-80
2022/11/16 13:24:06;;;;;;;4.47;1.40;;;8.90;99.90;;;;;;5018650;28;20037;-81
2022/11/16 13:27:04;;;;;;;1.85;1.25;;;9.50;99.90;;;;;;5022093;28;20413;-85
2022/11/16 13:29:44;;;;;;;6.45;0.93;;;9.00;99.90;;;;;;5014638;28;20390;-76
2022/11/16 13:32:16;;;;;;;2.78;0.90;;;9.10;99.90;;;;;;5005688;28;20576;-79
2022/11/16 13:34:45;;;;;;;4.95;1.08;;;9.00;99.90;;;;;;5008253;28;20049;-71
2022/11/16 13:37:38;;;;;;;1.75;0.95;;;9.10;99.90;;;;;;5007549;28;20046;-80
2022/11/16 13:40:07;;;;;;;5.70;1.20;;;9.00;99.90;;;;;;5008911;28;20053;-81
2022/11/16 13:43:08;;;;;;;1.63;0.77;;;9.10;99.90;;;;;;5007645;28;20050;-80
2022/11/16 13:45:59;;;;;;;4.57;1.00;;;9.10;99.90;;;;;;5007127;28;20054;-65
2022/11/16 13:48:35;;;;;;;2.80;1.10;;;9.10;99.90;;;;;;5017616;28;20370;-63
2022/11/16 13:51:07;;;;;;;3.90;1.27;;;9.10;99.90;;;;;;5015062;28;20564;-62
2022/11/16 13:53:37;;;;;;;4.00;0.88;;;9.10;99.90;;;;;;5017369;28;20050;-63
2022/11/16 13:56:25;;;;;;;6.30;1.45;;;9.10;99.90;;;;;;5007453;28;20493;-61
2022/11/16 13:58:57;;;;;;;6.25;1.10;;;9.20;99.90;;;;;;5018931;28;20041;-61
2022/11/16 14:01:44;;;;;;;3.67;0.98;;;9.20;99.90;;;;;;5020877;28;20374;-61
2022/11/16 14:04:37;;;;;;;4.15;1.00;;;9.80;99.90;;;;;;5022631;28;20445;-61
2022/11/16 14:07:39;;;;;;;3.72;0.82;;;9.90;99.90;;;;;;5015522;28;20521;-61
2022/11/16 14:10:08;;;;;;;4.07;0.80;;;10.60;99.90;;;;;;5007368;28;20386;-60
2022/11/16 14:12:52;;;;;;;2.47;0.93;;;10.90;99.90;;;;;;5027674;28;20062;-61
2022/11/16 14:15:28;;;;;;;2.25;0.85;;;10.90;99.90;;;;;;5030117;28;20065;-61
2022/11/16 14:18:01;;;;;;;6.72;1.35;;;10.80;99.90;;;;;;5023938;28;20044;-61
2022/11/16 14:20:35;;;;;;;4.95;1.25;;;10.60;99.90;;;;;;5029139;28;20045;-61